createdAt,value
2023-02-05T00:00:06.854Z,6.60
2023-02-05T00:01:07.032Z,5.20
2023-02-05T00:02:06.881Z,6.70
2023-02-05T00:03:06.889Z,5.50
2023-02-05T00:04:06.852Z,5.80
2023-02-05T00:05:06.780Z,12.60
2023-02-05T00:06:06.773Z,5.80
2023-02-05T00:07:06.741Z,6.10
2023-02-05T00:08:06.970Z,7.00
2023-02-05T00:09:07.000Z,5.40
2023-02-05T00:10:06.726Z,7.60
2023-02-05T00:11:06.707Z,5.60
2023-02-05T00:12:07.092Z,6.10
2023-02-05T00:13:06.692Z,6.20
2023-02-05T00:14:06.659Z,5.80
2023-02-05T00:15:06.690Z,5.20
2023-02-05T00:16:06.656Z,5.50
2023-02-05T00:17:06.767Z,5.40
2023-02-05T00:18:06.636Z,5.60
2023-02-05T00:19:06.636Z,6.10
2023-02-05T00:20:07.167Z,5.60
2023-02-05T00:21:06.622Z,5.20
2023-02-05T00:22:06.574Z,11.60
2023-02-05T00:23:06.579Z,7.90
2023-02-05T00:24:07.198Z,7.30
2023-02-05T00:25:07.108Z,4.60
2023-02-05T00:26:07.173Z,5.70
2023-02-05T00:27:06.530Z,5.00
2023-02-05T00:28:06.575Z,5.40
2023-02-05T00:29:06.543Z,5.00
2023-02-05T00:30:06.482Z,6.20
2023-02-05T00:31:06.618Z,5.70
2023-02-05T00:32:06.691Z,6.10
2023-02-05T00:33:06.721Z,6.90
2023-02-05T00:34:06.445Z,5.70
2023-02-05T00:35:06.747Z,6.30
2023-02-05T00:36:06.781Z,5.50
2023-02-05T00:37:06.440Z,6.30
2023-02-05T00:38:06.397Z,6.90
2023-02-05T00:39:06.404Z,4.60
2023-02-05T00:40:06.884Z,6.70
2023-02-05T00:41:06.642Z,5.00
2023-02-05T00:42:06.368Z,5.40
2023-02-05T00:43:06.800Z,4.70
2023-02-05T00:44:06.457Z,5.80
2023-02-05T00:45:06.461Z,5.50
2023-02-05T00:46:06.363Z,5.10
2023-02-05T00:47:07.047Z,4.70
2023-02-05T00:48:07.068Z,6.80
2023-02-05T00:49:07.099Z,4.80
2023-02-05T00:50:06.266Z,6.70
2023-02-05T00:51:06.282Z,5.00
2023-02-05T00:52:06.308Z,5.30
2023-02-05T00:53:06.257Z,5.70
2023-02-05T00:54:06.229Z,6.10
2023-02-05T00:55:06.207Z,5.10
2023-02-05T00:56:06.215Z,6.40
2023-02-05T00:57:06.223Z,6.80
2023-02-05T00:58:06.169Z,6.90
2023-02-05T00:59:06.200Z,7.30
2023-02-05T01:00:06.213Z,5.90
2023-02-05T01:01:06.241Z,5.00
2023-02-05T01:02:06.122Z,5.30
2023-02-05T01:03:06.218Z,5.70
2023-02-05T01:04:06.212Z,6.10
2023-02-05T01:05:06.204Z,6.80
2023-02-05T01:06:06.217Z,7.20
2023-02-05T01:07:06.110Z,5.90
2023-02-05T01:08:06.200Z,5.90
2023-02-05T01:09:06.070Z,5.00
2023-02-05T01:10:06.057Z,5.40
2023-02-05T01:11:06.038Z,6.20
2023-02-05T01:12:06.212Z,6.50
2023-02-05T01:13:06.080Z,5.80
2023-02-05T01:14:06.023Z,6.20
2023-02-05T01:15:06.229Z,8.10
2023-02-05T01:16:06.278Z,6.40
2023-02-05T01:17:05.983Z,6.00
2023-02-05T01:18:05.952Z,6.10
2023-02-05T01:19:06.227Z,7.70
2023-02-05T01:20:06.241Z,6.60
2023-02-05T01:21:05.969Z,8.30
2023-02-05T01:22:05.905Z,6.60
2023-02-05T01:23:05.965Z,6.10
2023-02-05T01:24:06.008Z,5.80
2023-02-05T01:25:05.886Z,7.20
2023-02-05T01:26:05.872Z,7.20
2023-02-05T01:27:06.063Z,5.10
2023-02-05T01:28:06.135Z,6.40
2023-02-05T01:29:05.846Z,6.00
2023-02-05T01:30:06.142Z,6.80
2023-02-05T01:31:05.916Z,5.50
2023-02-05T01:32:05.800Z,5.80
2023-02-05T01:33:06.148Z,4.50
2023-02-05T01:34:05.780Z,6.20
2023-02-05T01:35:05.781Z,6.30
2023-02-05T01:36:05.819Z,6.30
2023-02-05T01:37:05.776Z,6.20
2023-02-05T01:38:05.714Z,7.50
2023-02-05T01:39:05.790Z,6.30
2023-02-05T01:40:05.717Z,6.70
2023-02-05T01:41:05.705Z,6.90
2023-02-05T01:42:05.692Z,6.20
2023-02-05T01:43:05.681Z,8.70
2023-02-05T01:44:05.934Z,6.10
2023-02-05T01:45:05.949Z,7.10
2023-02-05T01:46:05.653Z,5.90
2023-02-05T01:47:05.642Z,6.10
2023-02-05T01:48:06.035Z,6.60
2023-02-05T01:49:05.604Z,6.50
2023-02-05T01:50:05.582Z,5.90
2023-02-05T01:51:05.586Z,7.00
2023-02-05T01:52:06.163Z,7.80
2023-02-05T01:53:05.572Z,6.90
2023-02-05T01:54:05.534Z,5.50
2023-02-05T01:55:06.242Z,7.80
2023-02-05T01:56:05.521Z,7.80
2023-02-05T01:57:05.525Z,5.80
2023-02-05T01:58:05.509Z,6.30
2023-02-05T01:59:05.489Z,5.50
2023-02-05T02:00:05.694Z,6.20
2023-02-05T02:01:06.251Z,6.50
2023-02-05T02:02:05.444Z,5.70
2023-02-05T02:03:05.467Z,8.00
2023-02-05T02:04:05.616Z,6.90
2023-02-05T02:05:05.458Z,6.10
2023-02-05T02:06:05.410Z,6.10
2023-02-05T02:07:06.258Z,6.10
2023-02-05T02:08:06.204Z,7.70
2023-02-05T02:09:06.271Z,6.80
2023-02-05T02:10:05.357Z,5.50
2023-02-05T02:11:06.254Z,5.90
2023-02-05T02:12:06.255Z,6.50
2023-02-05T02:13:05.904Z,6.00
2023-02-05T02:14:05.310Z,6.90
2023-02-05T02:15:05.306Z,6.70
2023-02-05T02:16:05.406Z,4.90
2023-02-05T02:17:05.293Z,5.30
2023-02-05T02:18:05.269Z,6.00
2023-02-05T02:19:05.338Z,5.40
2023-02-05T02:20:05.243Z,6.80
2023-02-05T02:21:05.242Z,6.40
2023-02-05T02:22:05.257Z,7.40
2023-02-05T02:23:05.243Z,9.50
2023-02-05T02:24:05.262Z,6.10
2023-02-05T02:25:05.191Z,5.40
2023-02-05T02:26:05.168Z,7.30
2023-02-05T02:27:05.240Z,6.20
2023-02-05T02:28:05.289Z,5.70
2023-02-05T02:29:05.162Z,5.80
2023-02-05T02:30:05.148Z,7.00
2023-02-05T02:31:05.372Z,6.00
2023-02-05T02:32:05.390Z,6.70
2023-02-05T02:33:05.131Z,6.70
2023-02-05T02:34:05.087Z,6.70
2023-02-05T02:35:05.531Z,5.70
2023-02-05T02:36:05.065Z,5.10
2023-02-05T02:37:05.271Z,6.20
2023-02-05T02:38:05.040Z,6.10
2023-02-05T02:39:05.042Z,4.60
2023-02-05T02:40:05.635Z,4.80
2023-02-05T02:41:05.277Z,6.30
2023-02-05T02:42:04.990Z,5.90
2023-02-05T02:43:05.245Z,4.90
2023-02-05T02:44:05.009Z,5.30
2023-02-05T02:45:04.993Z,6.10
2023-02-05T02:46:04.952Z,6.10
2023-02-05T02:47:05.190Z,6.40
2023-02-05T02:48:05.278Z,7.40
2023-02-05T02:49:04.936Z,6.80
2023-02-05T02:50:04.946Z,5.10
2023-02-05T02:51:05.290Z,6.20
2023-02-05T02:52:04.884Z,6.40
2023-02-05T02:53:05.288Z,7.70
2023-02-05T02:54:04.878Z,5.30
2023-02-05T02:55:04.871Z,5.30
2023-02-05T02:56:05.193Z,7.20
2023-02-05T02:57:04.839Z,8.40
2023-02-05T02:58:04.816Z,5.70
2023-02-05T02:59:05.029Z,6.00
2023-02-05T03:00:04.808Z,6.90
2023-02-05T03:01:04.890Z,5.60
2023-02-05T03:02:04.767Z,5.50
2023-02-05T03:03:04.768Z,7.40
2023-02-05T03:04:05.022Z,8.00
2023-02-05T03:05:05.314Z,5.70
2023-02-05T03:06:04.728Z,5.10
2023-02-05T03:07:05.301Z,6.00
2023-02-05T03:08:05.270Z,6.60
2023-02-05T03:09:05.300Z,7.10
2023-02-05T03:10:04.703Z,7.10
2023-02-05T03:11:04.725Z,6.50
2023-02-05T03:12:04.675Z,6.50
2023-02-05T03:13:04.675Z,6.90
2023-02-05T03:14:04.627Z,6.10
2023-02-05T03:15:04.753Z,6.60
2023-02-05T03:16:04.626Z,6.50
2023-02-05T03:17:04.609Z,6.80
2023-02-05T03:18:04.605Z,6.20
2023-02-05T03:19:04.596Z,5.60
2023-02-05T03:20:04.840Z,6.10
2023-02-05T03:21:04.596Z,6.70
2023-02-05T03:22:04.553Z,5.90
2023-02-05T03:23:05.007Z,5.80
2023-02-05T03:24:05.015Z,6.40
2023-02-05T03:25:04.537Z,5.60
2023-02-05T03:26:04.511Z,6.90
2023-02-05T03:27:04.513Z,6.60
2023-02-05T03:28:05.195Z,6.20
2023-02-05T03:29:04.481Z,7.00
2023-02-05T03:30:04.457Z,7.20
2023-02-05T03:31:05.278Z,6.60
2023-02-05T03:32:05.247Z,6.70
2023-02-05T03:33:04.443Z,5.90
2023-02-05T03:34:04.408Z,7.80
2023-02-05T03:35:04.424Z,5.90
2023-02-05T03:36:05.340Z,5.70
2023-02-05T03:37:04.387Z,6.10
2023-02-05T03:38:04.359Z,5.70
2023-02-05T03:39:05.160Z,7.60
2023-02-05T03:40:04.337Z,6.90
2023-02-05T03:41:04.360Z,7.10
2023-02-05T03:42:04.320Z,6.60
2023-02-05T03:43:04.324Z,6.30
2023-02-05T03:44:05.003Z,6.60
2023-02-05T03:45:04.320Z,5.90
2023-02-05T03:46:04.338Z,6.60
2023-02-05T03:47:04.284Z,6.00
2023-02-05T03:48:04.253Z,6.00
2023-02-05T03:49:04.249Z,5.10
2023-02-05T03:50:04.215Z,6.70
2023-02-05T03:51:04.333Z,7.20
2023-02-05T03:52:05.271Z,6.70
2023-02-05T03:53:04.210Z,5.50
2023-02-05T03:54:04.196Z,6.80
2023-02-05T03:55:04.192Z,6.40
2023-02-05T03:56:04.157Z,6.40
2023-02-05T03:57:05.106Z,5.40
2023-02-05T03:58:04.148Z,6.90
2023-02-05T03:59:04.127Z,5.80
2023-02-05T04:00:04.936Z,9.30
2023-02-05T04:01:04.149Z,5.90
2023-02-05T04:02:04.128Z,5.50
2023-02-05T04:03:04.164Z,6.50
2023-02-05T04:04:04.076Z,6.30
2023-02-05T04:05:04.061Z,5.50
2023-02-05T04:06:04.102Z,6.10
2023-02-05T04:07:04.038Z,6.00
2023-02-05T04:08:04.157Z,6.30
2023-02-05T04:09:04.034Z,5.20
2023-02-05T04:10:04.001Z,6.60
2023-02-05T04:11:04.230Z,5.60
2023-02-05T04:12:03.980Z,7.30
2023-02-05T04:13:03.971Z,6.40
2023-02-05T04:14:03.962Z,5.50
2023-02-05T04:15:04.330Z,5.80
2023-02-05T04:16:04.393Z,4.70
2023-02-05T04:17:03.928Z,5.10
2023-02-05T04:18:03.896Z,6.60
2023-02-05T04:19:04.342Z,6.60
2023-02-05T04:20:03.873Z,5.10
2023-02-05T04:21:04.228Z,6.10
2023-02-05T04:22:03.882Z,5.80
2023-02-05T04:23:03.852Z,5.40
2023-02-05T04:24:03.899Z,4.80
2023-02-05T04:25:03.839Z,5.70
2023-02-05T04:26:03.802Z,5.40
2023-02-05T04:27:03.825Z,5.50
2023-02-05T04:28:03.876Z,5.10
2023-02-05T04:29:03.782Z,5.10
2023-02-05T04:30:03.809Z,5.80
2023-02-05T04:31:03.810Z,6.00
2023-02-05T04:32:04.016Z,6.70
2023-02-05T04:33:03.730Z,5.10
2023-02-05T04:34:03.989Z,5.40
2023-02-05T04:35:04.354Z,5.60
2023-02-05T04:36:03.729Z,5.00
2023-02-05T04:37:03.714Z,5.90
2023-02-05T04:38:03.696Z,4.80
2023-02-05T04:39:03.681Z,5.60
2023-02-05T04:40:04.544Z,6.10
2023-02-05T04:41:03.661Z,5.30
2023-02-05T04:42:03.647Z,5.00
2023-02-05T04:43:03.654Z,6.70
2023-02-05T04:44:03.628Z,5.20
2023-02-05T04:45:03.677Z,5.00
2023-02-05T04:46:04.083Z,6.40
2023-02-05T04:47:04.056Z,6.50
2023-02-05T04:48:04.598Z,5.10
2023-02-05T04:49:03.562Z,5.40
2023-02-05T04:50:03.556Z,5.50
2023-02-05T04:51:03.584Z,6.30
2023-02-05T04:52:03.618Z,5.20
2023-02-05T04:53:03.526Z,5.90
2023-02-05T04:54:03.517Z,6.50
2023-02-05T04:55:03.767Z,6.10
2023-02-05T04:56:03.745Z,5.80
2023-02-05T04:57:03.485Z,5.80
2023-02-05T04:58:03.810Z,6.10
2023-02-05T04:59:03.460Z,6.40
2023-02-05T05:00:03.445Z,6.40
2023-02-05T05:01:03.506Z,5.50
2023-02-05T05:02:03.556Z,5.50
2023-02-05T05:03:03.413Z,6.20
2023-02-05T05:04:03.529Z,7.20
2023-02-05T05:05:03.382Z,6.70
2023-02-05T05:06:03.395Z,5.80
2023-02-05T05:07:03.360Z,5.80
2023-02-05T05:08:03.368Z,4.60
2023-02-05T05:09:03.338Z,6.40
2023-02-05T05:10:03.330Z,6.20
2023-02-05T05:11:03.306Z,5.50
2023-02-05T05:12:03.395Z,6.70
2023-02-05T05:13:03.283Z,5.50
2023-02-05T05:14:03.314Z,6.00
2023-02-05T05:15:03.261Z,6.60
2023-02-05T05:16:03.300Z,5.80
2023-02-05T05:17:03.236Z,5.30
2023-02-05T05:18:03.243Z,6.70
2023-02-05T05:19:03.217Z,7.70
2023-02-05T05:20:03.393Z,6.90
2023-02-05T05:21:03.196Z,5.40
2023-02-05T05:22:03.392Z,6.20
2023-02-05T05:23:03.398Z,6.00
2023-02-05T05:24:03.177Z,6.30
2023-02-05T05:25:03.174Z,5.50
2023-02-05T05:26:03.394Z,6.10
2023-02-05T05:27:03.392Z,7.40
2023-02-05T05:28:03.451Z,6.50
2023-02-05T05:29:03.116Z,7.10
2023-02-05T05:30:03.181Z,8.20
2023-02-05T05:31:03.110Z,6.10
2023-02-05T05:32:03.444Z,6.40
2023-02-05T05:33:03.055Z,5.50
2023-02-05T05:34:03.404Z,7.80
2023-02-05T05:35:03.136Z,5.60
2023-02-05T05:36:03.347Z,7.00
2023-02-05T05:37:03.145Z,6.30
2023-02-05T05:38:03.029Z,6.10
2023-02-05T05:39:03.024Z,6.30
2023-02-05T05:40:03.077Z,7.20
2023-02-05T05:41:02.976Z,5.60
2023-02-05T05:42:03.111Z,5.40
2023-02-05T05:43:03.141Z,6.50
2023-02-05T05:44:03.166Z,9.20
2023-02-05T05:45:02.958Z,5.20
2023-02-05T05:46:03.244Z,5.80
2023-02-05T05:47:03.263Z,6.20
2023-02-05T05:48:02.916Z,5.40
2023-02-05T05:49:03.314Z,5.40
2023-02-05T05:50:03.348Z,6.10
2023-02-05T05:51:03.386Z,6.50
2023-02-05T05:52:03.414Z,5.40
2023-02-05T05:53:02.852Z,5.10
2023-02-05T05:54:02.846Z,5.20
2023-02-05T05:55:02.869Z,4.80
2023-02-05T05:56:02.868Z,5.60
2023-02-05T05:57:02.921Z,6.00
2023-02-05T05:58:02.830Z,6.20
2023-02-05T05:59:02.972Z,5.90
2023-02-05T06:00:02.996Z,5.40
2023-02-05T06:01:02.758Z,6.00
2023-02-05T06:02:03.050Z,4.90
2023-02-05T06:03:03.069Z,6.00
2023-02-05T06:04:04.251Z,6.80
2023-02-05T06:05:02.695Z,7.30
2023-02-05T06:06:03.152Z,6.40
2023-02-05T06:07:02.687Z,6.20
2023-02-05T06:08:03.205Z,5.70
2023-02-05T06:09:02.657Z,6.00
2023-02-05T06:10:03.256Z,5.60
2023-02-05T06:11:03.267Z,8.60
2023-02-05T06:12:03.262Z,5.80
2023-02-05T06:13:02.643Z,5.40
2023-02-05T06:14:02.615Z,6.20
2023-02-05T06:15:03.351Z,5.60
2023-02-05T06:16:03.478Z,6.10
2023-02-05T06:17:02.559Z,7.30
2023-02-05T06:18:03.435Z,5.40
2023-02-05T06:19:03.430Z,6.70
2023-02-05T06:20:02.853Z,6.30
2023-02-05T06:21:03.421Z,6.00
2023-02-05T06:22:03.326Z,6.90
2023-02-05T06:23:03.429Z,5.30
2023-02-05T06:24:03.440Z,7.20
2023-02-05T06:25:02.462Z,6.30
2023-02-05T06:26:02.472Z,7.00
2023-02-05T06:27:02.453Z,5.90
2023-02-05T06:28:02.518Z,7.10
2023-02-05T06:29:02.418Z,8.20
2023-02-05T06:30:02.452Z,6.40
2023-02-05T06:31:02.562Z,6.80
2023-02-05T06:32:02.475Z,5.80
2023-02-05T06:33:02.376Z,5.40
2023-02-05T06:34:02.408Z,6.70
2023-02-05T06:35:02.451Z,7.50
2023-02-05T06:36:02.370Z,6.30
2023-02-05T06:37:02.327Z,8.00
2023-02-05T06:38:02.445Z,7.00
2023-02-05T06:39:02.446Z,5.70
2023-02-05T06:40:02.446Z,6.00
2023-02-05T06:41:02.284Z,6.00
2023-02-05T06:42:02.292Z,6.30
2023-02-05T06:43:02.439Z,7.40
2023-02-05T06:44:02.278Z,6.80
2023-02-05T06:45:02.444Z,6.30
2023-02-05T06:46:02.510Z,7.10
2023-02-05T06:47:02.224Z,5.40
2023-02-05T06:48:02.249Z,5.80
2023-02-05T06:49:02.211Z,6.20
2023-02-05T06:50:02.195Z,5.90
2023-02-05T06:51:02.191Z,6.90
2023-02-05T06:52:02.190Z,7.80
2023-02-05T06:53:02.150Z,5.80
2023-02-05T06:54:02.368Z,6.60
2023-02-05T06:55:02.381Z,6.90
2023-02-05T06:56:02.416Z,6.80
2023-02-05T06:57:02.098Z,5.20
2023-02-05T06:58:02.108Z,6.10
2023-02-05T06:59:02.455Z,7.40
2023-02-05T07:00:02.088Z,6.10
2023-02-05T07:01:02.059Z,7.20
2023-02-05T07:02:02.525Z,6.00
2023-02-05T07:03:02.203Z,6.00
2023-02-05T07:04:02.069Z,6.10
2023-02-05T07:05:02.016Z,6.30
2023-02-05T07:06:02.528Z,6.90
2023-02-05T07:07:02.462Z,6.70
2023-02-05T07:08:02.461Z,5.40
2023-02-05T07:09:01.964Z,6.70
2023-02-05T07:10:01.995Z,6.00
2023-02-05T07:11:02.462Z,7.70
2023-02-05T07:12:02.480Z,8.00
2023-02-05T07:13:03.053Z,7.10
2023-02-05T07:14:01.941Z,6.60
2023-02-05T07:15:01.938Z,5.90
2023-02-05T07:16:01.978Z,5.60
2023-02-05T07:17:01.986Z,5.90
2023-02-05T07:18:01.888Z,6.10
2023-02-05T07:19:02.045Z,7.00
2023-02-05T07:20:02.098Z,6.80
2023-02-05T07:21:01.857Z,5.90
2023-02-05T07:22:01.846Z,6.60
2023-02-05T07:23:01.821Z,8.30
2023-02-05T07:24:01.820Z,7.00
2023-02-05T07:25:04.276Z,6.30
2023-02-05T07:26:01.815Z,6.30
2023-02-05T07:27:02.287Z,7.20
2023-02-05T07:28:02.364Z,6.40
2023-02-05T07:29:01.754Z,6.90
2023-02-05T07:30:01.752Z,5.90
2023-02-05T07:31:01.806Z,6.60
2023-02-05T07:32:01.776Z,7.00
2023-02-05T07:33:01.707Z,6.90
2023-02-05T07:34:01.707Z,9.00
2023-02-05T07:35:02.481Z,6.50
2023-02-05T07:36:02.361Z,6.40
2023-02-05T07:37:01.656Z,6.30
2023-02-05T07:38:02.524Z,6.50
2023-02-05T07:39:02.486Z,7.10
2023-02-05T07:40:01.653Z,6.40
2023-02-05T07:41:02.399Z,6.90
2023-02-05T07:42:01.614Z,6.10
2023-02-05T07:43:01.616Z,6.00
2023-02-05T07:44:01.702Z,6.30
2023-02-05T07:45:01.570Z,7.10
2023-02-05T07:46:01.560Z,6.40
2023-02-05T07:47:01.704Z,7.80
2023-02-05T07:48:01.558Z,6.10
2023-02-05T07:49:01.540Z,5.90
2023-02-05T07:50:01.546Z,5.20
2023-02-05T07:51:01.801Z,6.00
2023-02-05T07:52:01.523Z,6.20
2023-02-05T07:53:01.487Z,6.30
2023-02-05T07:54:01.471Z,6.60
2023-02-05T07:55:01.548Z,7.20
2023-02-05T07:56:01.453Z,7.20
2023-02-05T07:57:01.423Z,8.40
2023-02-05T07:58:01.431Z,5.70
2023-02-05T07:59:01.506Z,5.90
2023-02-05T08:00:01.513Z,6.80
2023-02-05T08:01:02.157Z,5.50
2023-02-05T08:02:01.392Z,4.90
2023-02-05T08:03:01.392Z,5.70
2023-02-05T08:04:01.388Z,6.10
2023-02-05T08:05:01.426Z,5.90
2023-02-05T08:06:01.497Z,4.80
2023-02-05T08:07:01.505Z,5.80
2023-02-05T08:08:01.508Z,6.00
2023-02-05T08:09:01.288Z,6.20
2023-02-05T08:10:01.474Z,6.40
2023-02-05T08:11:01.636Z,6.30
2023-02-05T08:12:01.677Z,5.90
2023-02-05T08:13:01.251Z,7.20
2023-02-05T08:14:01.251Z,5.40
2023-02-05T08:15:01.263Z,6.40
2023-02-05T08:16:01.590Z,5.80
2023-02-05T08:17:01.206Z,5.90
2023-02-05T08:18:01.212Z,6.40
2023-02-05T08:19:01.220Z,6.20
2023-02-05T08:20:01.415Z,5.20
2023-02-05T08:21:01.539Z,5.70
2023-02-05T08:22:01.173Z,5.80
2023-02-05T08:23:01.951Z,5.20
2023-02-05T08:24:01.544Z,5.90
2023-02-05T08:25:01.529Z,6.90
2023-02-05T08:26:01.588Z,5.30
2023-02-05T08:27:01.516Z,4.80
2023-02-05T08:28:01.585Z,5.80
2023-02-05T08:29:01.548Z,6.70
2023-02-05T08:30:01.570Z,6.50
2023-02-05T08:31:01.398Z,5.50
2023-02-05T08:32:01.572Z,7.70
2023-02-05T08:33:01.588Z,5.50
2023-02-05T08:34:01.022Z,5.60
2023-02-05T08:35:01.550Z,4.80
2023-02-05T08:36:02.177Z,5.50
2023-02-05T08:37:01.560Z,9.40
2023-02-05T08:38:01.003Z,6.40
2023-02-05T08:39:01.003Z,5.80
2023-02-05T08:40:01.033Z,7.00
2023-02-05T08:41:01.045Z,6.20
2023-02-05T08:42:00.949Z,6.90
2023-02-05T08:43:01.001Z,5.40
2023-02-05T08:44:00.923Z,6.00
2023-02-05T08:45:00.995Z,6.50
2023-02-05T08:46:01.284Z,7.30
2023-02-05T08:47:01.213Z,6.80
2023-02-05T08:48:01.220Z,8.00
2023-02-05T08:49:00.861Z,6.30
2023-02-05T08:50:00.831Z,6.40
2023-02-05T08:51:00.878Z,5.80
2023-02-05T08:52:00.915Z,6.40
2023-02-05T08:53:00.871Z,5.80
2023-02-05T08:54:00.808Z,6.10
2023-02-05T08:55:01.001Z,5.80
2023-02-05T08:56:00.791Z,5.30
2023-02-05T08:57:01.059Z,6.00
2023-02-05T08:58:01.113Z,5.70
2023-02-05T08:59:01.130Z,5.60
2023-02-05T09:00:01.156Z,6.30
2023-02-05T09:01:01.218Z,5.40
2023-02-05T09:02:01.209Z,5.50
2023-02-05T09:03:01.262Z,6.10
2023-02-05T09:04:01.335Z,6.70
2023-02-05T09:05:09.001Z,6.60
2023-02-05T09:06:01.657Z,6.50
2023-02-05T09:07:01.178Z,6.40
2023-02-05T09:08:00.844Z,6.00
2023-02-05T09:09:01.479Z,5.80
2023-02-05T09:10:00.630Z,6.80
2023-02-05T09:11:01.456Z,6.30
2023-02-05T09:12:00.580Z,6.80
2023-02-05T09:13:00.587Z,5.80
2023-02-05T09:14:00.566Z,6.10
2023-02-05T09:15:00.579Z,6.50
2023-02-05T09:16:00.546Z,6.00
2023-02-05T09:17:00.562Z,4.80
2023-02-05T09:18:00.538Z,6.40
2023-02-05T09:19:00.533Z,5.10
2023-02-05T09:20:00.585Z,5.00
2023-02-05T09:21:00.511Z,5.20
2023-02-05T09:22:00.466Z,5.00
2023-02-05T09:23:00.508Z,4.50
2023-02-05T09:24:00.474Z,5.10
2023-02-05T09:25:00.515Z,5.40
2023-02-05T09:26:00.425Z,4.60
2023-02-05T09:27:00.567Z,4.60
2023-02-05T09:28:00.453Z,5.30
2023-02-05T09:29:00.422Z,5.10
2023-02-05T09:30:00.408Z,6.40
2023-02-05T09:31:00.707Z,5.40
2023-02-05T09:32:00.364Z,5.10
2023-02-05T09:33:00.357Z,5.80
2023-02-05T09:34:00.387Z,4.90
2023-02-05T09:35:00.367Z,5.70
2023-02-05T09:36:00.309Z,5.70
2023-02-05T09:37:00.325Z,6.70
2023-02-05T09:38:00.311Z,5.10
2023-02-05T09:39:12.988Z,4.70
2023-02-05T09:41:01.268Z,6.20
2023-02-05T09:42:00.253Z,5.80
2023-02-05T09:43:00.322Z,4.80
2023-02-05T09:44:00.249Z,5.80
2023-02-05T09:45:00.234Z,4.80
2023-02-05T09:46:00.371Z,4.60
2023-02-05T09:47:00.230Z,4.00
2023-02-05T09:48:00.176Z,3.80
2023-02-05T09:49:00.193Z,4.20
2023-02-05T09:50:00.189Z,3.00
2023-02-05T09:51:00.419Z,2.90
2023-02-05T09:52:00.156Z,3.40
2023-02-05T09:53:00.154Z,3.50
2023-02-05T09:54:00.298Z,3.00
2023-02-05T09:55:00.204Z,3.10
2023-02-05T09:56:00.126Z,3.30
2023-02-05T09:57:00.267Z,3.00
2023-02-05T09:58:00.107Z,2.90
2023-02-05T09:59:00.482Z,2.60
2023-02-05T10:00:00.597Z,2.40
2023-02-05T10:01:00.141Z,2.70
2023-02-05T10:02:00.040Z,2.20
2023-02-05T10:03:00.035Z,3.10
2023-02-05T10:04:00.178Z,3.50
2023-02-05T10:05:00.003Z,4.10
2023-02-05T10:05:59.991Z,2.60
2023-02-05T10:06:59.999Z,3.20
2023-02-05T10:07:59.951Z,3.50
2023-02-05T10:08:59.954Z,3.10
2023-02-05T10:09:59.936Z,4.00
2023-02-05T10:10:59.988Z,4.40
2023-02-05T10:11:59.909Z,3.50
2023-02-05T10:12:59.910Z,2.90
2023-02-05T10:13:59.887Z,3.00
2023-02-05T10:15:00.110Z,2.90
2023-02-05T10:15:59.912Z,2.80
2023-02-05T10:16:59.863Z,3.10
2023-02-05T10:18:00.637Z,2.50
2023-02-05T10:19:00.030Z,2.50
2023-02-05T10:20:00.603Z,2.80
2023-02-05T10:21:00.613Z,2.50
2023-02-05T10:21:59.816Z,2.30
2023-02-05T10:22:59.794Z,2.40
2023-02-05T10:23:59.776Z,2.30
2023-02-05T10:24:59.773Z,2.10
2023-02-05T10:25:59.744Z,2.20
2023-02-05T10:26:59.767Z,3.90
2023-02-05T10:27:59.800Z,2.30
2023-02-05T10:28:59.748Z,1.90
2023-02-05T10:29:59.712Z,1.70
2023-02-05T10:30:59.911Z,2.10
2023-02-05T10:31:59.697Z,1.80
2023-02-05T10:32:59.722Z,1.80
2023-02-05T10:33:59.713Z,1.90
2023-02-05T10:34:59.675Z,1.70
2023-02-05T10:35:59.651Z,2.40
2023-02-05T10:36:59.644Z,2.20
2023-02-05T10:37:59.643Z,1.70
2023-02-05T10:38:59.652Z,2.20
2023-02-05T10:39:59.599Z,2.00
2023-02-05T10:41:00.606Z,1.90
2023-02-05T10:41:59.591Z,2.20
2023-02-05T10:42:59.578Z,1.80
2023-02-05T10:43:59.779Z,1.80
2023-02-05T10:44:59.553Z,2.40
2023-02-05T10:45:59.597Z,2.20
2023-02-05T10:46:59.529Z,2.50
2023-02-05T10:47:59.499Z,1.80
2023-02-05T10:48:59.526Z,2.20
2023-02-05T10:49:59.494Z,2.10
2023-02-05T10:50:59.478Z,2.20
2023-02-05T10:51:59.483Z,1.80
2023-02-05T10:52:59.464Z,1.70
2023-02-05T10:53:59.454Z,2.10
2023-02-05T10:54:59.632Z,2.00
2023-02-05T10:55:59.413Z,1.90
2023-02-05T10:56:59.420Z,2.10
2023-02-05T10:57:59.389Z,1.90
2023-02-05T10:58:59.388Z,2.70
2023-02-05T10:59:59.452Z,1.70
2023-02-05T11:00:59.371Z,1.90
2023-02-05T11:01:59.444Z,1.60
2023-02-05T11:02:59.717Z,2.40
2023-02-05T11:03:59.411Z,2.10
2023-02-05T11:04:59.348Z,1.70
2023-02-05T11:05:59.312Z,1.60
2023-02-05T11:06:59.300Z,1.40
2023-02-05T11:08:00.002Z,1.90
2023-02-05T11:08:59.301Z,1.50
2023-02-05T11:09:59.270Z,1.50
2023-02-05T11:10:59.640Z,1.70
2023-02-05T11:11:59.235Z,1.60
2023-02-05T11:12:59.246Z,2.10
2023-02-05T11:13:59.302Z,1.70
2023-02-05T11:14:59.233Z,2.40
2023-02-05T11:15:59.396Z,1.70
2023-02-05T11:16:59.289Z,2.00
2023-02-05T11:17:59.167Z,1.60
2023-02-05T11:18:59.451Z,2.20
2023-02-05T11:19:59.478Z,1.90
2023-02-05T11:20:59.140Z,1.50
2023-02-05T11:21:59.132Z,1.40
2023-02-05T11:22:59.117Z,2.50
2023-02-05T11:23:59.193Z,1.60
2023-02-05T11:24:59.091Z,1.30
2023-02-05T11:25:59.073Z,1.20
2023-02-05T11:26:59.081Z,1.50
2023-02-05T11:27:59.116Z,1.50
2023-02-05T11:28:59.094Z,1.40
2023-02-05T11:29:59.038Z,1.40
2023-02-05T11:30:59.576Z,1.40
2023-02-05T11:31:59.513Z,1.50
2023-02-05T11:32:59.019Z,1.50
2023-02-05T11:33:58.980Z,1.50
2023-02-05T11:34:59.473Z,1.50
2023-02-05T11:35:58.962Z,1.50
2023-02-05T11:36:58.956Z,1.30
2023-02-05T11:37:58.962Z,1.20
2023-02-05T11:38:59.587Z,1.50
2023-02-05T11:39:58.922Z,1.30
2023-02-05T11:40:58.922Z,1.20
2023-02-05T11:41:58.890Z,1.50
2023-02-05T11:42:59.254Z,1.20
2023-02-05T11:43:58.886Z,1.40
2023-02-05T11:44:58.900Z,1.20
2023-02-05T11:45:58.848Z,1.00
2023-02-05T11:46:59.654Z,1.10
2023-02-05T11:47:59.660Z,1.10
2023-02-05T11:48:58.841Z,1.00
2023-02-05T11:49:59.666Z,1.30
2023-02-05T11:50:59.664Z,1.20
2023-02-05T11:51:58.794Z,1.30
2023-02-05T11:52:59.270Z,1.60
2023-02-05T11:53:59.626Z,1.20
2023-02-05T11:54:58.779Z,1.60
2023-02-05T11:55:58.746Z,1.20
2023-02-05T11:56:58.745Z,0.90
2023-02-05T11:57:59.296Z,0.80
2023-02-05T11:58:58.722Z,1.20
2023-02-05T11:59:58.719Z,1.10
2023-02-05T12:00:58.693Z,1.30
2023-02-05T12:01:58.689Z,0.80
2023-02-05T12:02:58.705Z,1.10
2023-02-05T12:03:58.653Z,1.60
2023-02-05T12:04:58.675Z,0.90
2023-02-05T12:05:58.673Z,1.90
2023-02-05T12:06:58.678Z,0.60
2023-02-05T12:07:58.611Z,0.80
2023-02-05T12:08:58.601Z,1.00
2023-02-05T12:09:58.685Z,0.80
2023-02-05T12:10:58.577Z,1.40
2023-02-05T12:11:58.544Z,0.80
2023-02-05T12:12:58.559Z,1.30
2023-02-05T12:13:58.530Z,1.20
2023-02-05T12:14:58.565Z,0.80
2023-02-05T12:15:58.523Z,1.00
2023-02-05T12:16:58.510Z,1.50
2023-02-05T12:17:58.493Z,1.30
2023-02-05T12:18:58.487Z,1.90
2023-02-05T12:19:58.654Z,0.80
2023-02-05T12:20:58.488Z,1.00
2023-02-05T12:21:58.690Z,1.30
2023-02-05T12:22:58.705Z,0.90
2023-02-05T12:23:58.412Z,0.80
2023-02-05T12:24:58.419Z,1.40
2023-02-05T12:25:58.715Z,1.30
2023-02-05T12:26:58.592Z,1.60
2023-02-05T12:27:58.411Z,2.00
2023-02-05T12:28:58.366Z,1.10
2023-02-05T12:29:58.431Z,0.90
2023-02-05T12:30:58.703Z,1.50
2023-02-05T12:31:58.356Z,1.20
2023-02-05T12:32:58.720Z,0.80
2023-02-05T12:33:58.461Z,0.80
2023-02-05T12:34:58.303Z,0.80
2023-02-05T12:35:58.288Z,1.20
2023-02-05T12:36:58.289Z,1.00
2023-02-05T12:37:58.698Z,1.40
2023-02-05T12:38:58.703Z,1.00
2023-02-05T12:39:58.238Z,1.30
2023-02-05T12:40:58.706Z,0.80
2023-02-05T12:41:58.702Z,0.70
2023-02-05T12:42:58.246Z,1.90
2023-02-05T12:43:58.187Z,0.60
2023-02-05T12:44:58.189Z,1.10
2023-02-05T12:45:58.262Z,1.20
2023-02-05T12:46:58.160Z,1.20
2023-02-05T12:47:58.175Z,1.40
2023-02-05T12:48:58.167Z,1.00
2023-02-05T12:49:58.137Z,1.40
2023-02-05T12:50:58.129Z,1.10
2023-02-05T12:51:58.288Z,1.60
2023-02-05T12:52:58.102Z,0.90
2023-02-05T12:53:58.079Z,1.10
2023-02-05T12:54:58.356Z,1.30
2023-02-05T12:55:58.040Z,1.20
2023-02-05T12:56:58.097Z,1.20
2023-02-05T12:57:58.464Z,1.10
2023-02-05T12:58:58.034Z,0.80
2023-02-05T12:59:58.097Z,1.10
2023-02-05T13:00:58.014Z,1.70
2023-02-05T13:01:58.170Z,1.40
2023-02-05T13:02:58.611Z,3.80
2023-02-05T13:04:01.094Z,1.40
2023-02-05T13:04:58.673Z,1.20
2023-02-05T13:05:58.711Z,1.20
2023-02-05T13:06:58.717Z,1.20
2023-02-05T13:07:58.732Z,1.10
2023-02-05T13:08:57.897Z,1.10
2023-02-05T13:09:59.649Z,0.90
2023-02-05T13:10:57.978Z,0.80
2023-02-05T13:11:57.894Z,1.70
2023-02-05T13:12:58.025Z,2.90
2023-02-05T13:13:58.033Z,1.40
2023-02-05T13:14:57.827Z,1.30
2023-02-05T13:15:57.849Z,1.30
2023-02-05T13:16:58.103Z,1.60
2023-02-05T13:17:58.138Z,3.00
2023-02-05T13:18:58.156Z,1.60